sensor_id;sensor_type;location;lat;lon;timestamp;pressure;altitude;pressure_sealevel;temperature;humidity
68656;BME280;55638;51.122;13.606;2023-02-08T00:01:07;102728.69;;;-8.07;60.31
68656;BME280;55638;51.122;13.606;2023-02-08T00:02:38;102729.53;;;-8.08;60.21
68656;BME280;55638;51.122;13.606;2023-02-08T00:04:10;102730.31;;;-8.10;60.18
68656;BME280;55638;51.122;13.606;2023-02-08T00:05:43;102731.97;;;-8.12;60.14
68656;BME280;55638;51.122;13.606;2023-02-08T00:07:15;102731.06;;;-8.14;60.18
68656;BME280;55638;51.122;13.606;2023-02-08T00:08:46;102727.47;;;-8.16;60.20
68656;BME280;55638;51.122;13.606;2023-02-08T00:10:18;102738.78;;;-8.17;60.21
68656;BME280;55638;51.122;13.606;2023-02-08T00:11:50;102733.50;;;-8.19;60.32
68656;BME280;55638;51.122;13.606;2023-02-08T00:13:22;102732.56;;;-8.21;60.40
68656;BME280;55638;51.122;13.606;2023-02-08T00:14:54;102732.50;;;-8.22;60.41
68656;BME280;55638;51.122;13.606;2023-02-08T00:16:26;102728.13;;;-8.23;60.45
68656;BME280;55638;51.122;13.606;2023-02-08T00:17:58;102730.72;;;-8.23;60.44
68656;BME280;55638;51.122;13.606;2023-02-08T00:19:30;102731.56;;;-8.24;60.58
68656;BME280;55638;51.122;13.606;2023-02-08T00:21:12;102729.78;;;-8.25;60.77
68656;BME280;55638;51.122;13.606;2023-02-08T00:22:45;102728.00;;;-8.26;60.59
68656;BME280;55638;51.122;13.606;2023-02-08T00:24:16;102725.38;;;-8.26;60.40
68656;BME280;55638;51.122;13.606;2023-02-08T00:25:48;102721.03;;;-8.26;60.45
68656;BME280;55638;51.122;13.606;2023-02-08T00:27:20;102724.50;;;-8.27;60.10
68656;BME280;55638;51.122;13.606;2023-02-08T00:28:52;102724.44;;;-8.29;60.61
68656;BME280;55638;51.122;13.606;2023-02-08T00:30:24;102727.97;;;-8.28;60.61
68656;BME280;55638;51.122;13.606;2023-02-08T00:31:56;102723.50;;;-8.31;60.42
68656;BME280;55638;51.122;13.606;2023-02-08T00:33:27;102721.72;;;-8.32;60.34
68656;BME280;55638;51.122;13.606;2023-02-08T00:34:59;102724.31;;;-8.32;60.38
68656;BME280;55638;51.122;13.606;2023-02-08T00:36:31;102723.41;;;-8.34;60.28
68656;BME280;55638;51.122;13.606;2023-02-08T00:38:03;102720.69;;;-8.37;60.22
68656;BME280;55638;51.122;13.606;2023-02-08T00:39:35;102719.78;;;-8.37;60.18
68656;BME280;55638;51.122;13.606;2023-02-08T00:41:06;102724.13;;;-8.38;60.25
68656;BME280;55638;51.122;13.606;2023-02-08T00:42:39;102726.69;;;-8.39;60.24
68656;BME280;55638;51.122;13.606;2023-02-08T00:44:12;102725.72;;;-8.41;60.18
68656;BME280;55638;51.122;13.606;2023-02-08T00:45:43;102725.69;;;-8.43;60.21
68656;BME280;55638;51.122;13.606;2023-02-08T00:47:15;102720.41;;;-8.44;60.41
68656;BME280;55638;51.122;13.606;2023-02-08T00:48:47;102722.06;;;-8.46;60.20
68656;BME280;55638;51.122;13.606;2023-02-08T00:50:19;102724.63;;;-8.48;60.07
68656;BME280;55638;51.122;13.606;2023-02-08T00:51:50;102715.84;;;-8.50;60.19
68656;BME280;55638;51.122;13.606;2023-02-08T00:53:22;102720.13;;;-8.52;60.22
68656;BME280;55638;51.122;13.606;2023-02-08T00:54:54;102713.13;;;-8.53;60.21
68656;BME280;55638;51.122;13.606;2023-02-08T00:56:26;102716.59;;;-8.54;60.47
68656;BME280;55638;51.122;13.606;2023-02-08T00:57:58;102719.13;;;-8.56;60.60
68656;BME280;55638;51.122;13.606;2023-02-08T00:59:29;102715.63;;;-8.56;60.53
68656;BME280;55638;51.122;13.606;2023-02-08T01:01:03;102716.47;;;-8.57;60.63
68656;BME280;55638;51.122;13.606;2023-02-08T01:02:37;102717.34;;;-8.57;60.70
68656;BME280;55638;51.122;13.606;2023-02-08T01:04:09;102706.00;;;-8.57;60.92
68656;BME280;55638;51.122;13.606;2023-02-08T01:05:41;102700.78;;;-8.57;60.75
68656;BME280;55638;51.122;13.606;2023-02-08T01:07:13;102702.47;;;-8.58;60.79
68656;BME280;55638;51.122;13.606;2023-02-08T01:08:45;102698.97;;;-8.58;60.82
68656;BME280;55638;51.122;13.606;2023-02-08T01:10:18;102699.06;;;-8.57;60.87
68656;BME280;55638;51.122;13.606;2023-02-08T01:11:50;102700.78;;;-8.57;60.76
68656;BME280;55638;51.122;13.606;2023-02-08T01:13:22;102696.38;;;-8.58;60.77
68656;BME280;55638;51.122;13.606;2023-02-08T01:14:54;102694.63;;;-8.58;60.67
68656;BME280;55638;51.122;13.606;2023-02-08T01:16:28;102698.16;;;-8.57;60.75
68656;BME280;55638;51.122;13.606;2023-02-08T01:18:03;102690.25;;;-8.59;60.56
68656;BME280;55638;51.122;13.606;2023-02-08T01:19:35;102694.59;;;-8.59;60.48
68656;BME280;55638;51.122;13.606;2023-02-08T01:21:10;102706.78;;;-8.60;60.58
68656;BME280;55638;51.122;13.606;2023-02-08T01:22:42;102700.66;;;-8.60;60.54
68656;BME280;55638;51.122;13.606;2023-02-08T01:24:14;102697.97;;;-8.62;60.55
68656;BME280;55638;51.122;13.606;2023-02-08T01:25:49;102699.72;;;-8.62;60.56
68656;BME280;55638;51.122;13.606;2023-02-08T01:27:21;102696.25;;;-8.61;60.50
68656;BME280;55638;51.122;13.606;2023-02-08T01:28:54;102695.25;;;-8.65;60.61
68656;BME280;55638;51.122;13.606;2023-02-08T01:30:26;102686.53;;;-8.65;60.31
68656;BME280;55638;51.122;13.606;2023-02-08T01:31:58;102695.22;;;-8.66;60.60
68656;BME280;55638;51.122;13.606;2023-02-08T01:33:33;102695.16;;;-8.68;60.39
68656;BME280;55638;51.122;13.606;2023-02-08T01:35:06;102689.88;;;-8.69;60.29
68656;BME280;55638;51.122;13.606;2023-02-08T01:36:40;102693.34;;;-8.70;60.33
68656;BME280;55638;51.122;13.606;2023-02-08T01:38:12;102692.38;;;-8.72;60.26
68656;BME280;55638;51.122;13.606;2023-02-08T01:39:43;102693.22;;;-8.73;60.14
68656;BME280;55638;51.122;13.606;2023-02-08T01:41:25;102690.53;;;-8.75;60.03
68656;BME280;55638;51.122;13.606;2023-02-08T01:42:56;102691.31;;;-8.78;60.06
68656;BME280;55638;51.122;13.606;2023-02-08T01:46:40;102692.88;;;-8.83;60.21
68656;BME280;55638;51.122;13.606;2023-02-08T01:48:17;102697.03;;;-8.88;60.12
68656;BME280;55638;51.122;13.606;2023-02-08T01:49:50;102697.00;;;-8.89;60.16
68656;BME280;55638;51.122;13.606;2023-02-08T01:51:26;102695.19;;;-8.90;60.23
68656;BME280;55638;51.122;13.606;2023-02-08T01:53:00;102691.66;;;-8.92;60.32
68656;BME280;55638;51.122;13.606;2023-02-08T01:54:37;102694.19;;;-8.94;60.40
68656;BME280;55638;51.122;13.606;2023-02-08T01:56:16;102688.84;;;-8.97;60.46
68656;BME280;55638;51.122;13.606;2023-02-08T01:57:52;102689.69;;;-8.98;60.53
68656;BME280;55638;51.122;13.606;2023-02-08T01:59:31;102688.81;;;-8.98;60.60
68656;BME280;55638;51.122;13.606;2023-02-08T02:01:06;102685.31;;;-8.99;60.51
68656;BME280;55638;51.122;13.606;2023-02-08T02:02:39;102683.47;;;-9.02;60.52
68656;BME280;55638;51.122;13.606;2023-02-08T02:04:12;102681.75;;;-9.01;60.52
68656;BME280;55638;51.122;13.606;2023-02-08T02:05:49;102684.25;;;-9.04;60.45
68656;BME280;55638;51.122;13.606;2023-02-08T02:07:26;102684.25;;;-9.04;60.57
68656;BME280;55638;51.122;13.606;2023-02-08T02:09:15;102688.53;;;-9.06;60.71
68656;BME280;55638;51.122;13.606;2023-02-08T02:10:48;102688.63;;;-9.03;60.67
68656;BME280;55638;51.122;13.606;2023-02-08T02:12:21;102685.94;;;-9.06;60.81
68656;BME280;55638;51.122;13.606;2023-02-08T02:13:54;102685.97;;;-9.05;60.63
68656;BME280;55638;51.122;13.606;2023-02-08T02:15:26;102676.41;;;-9.04;60.86
68656;BME280;55638;51.122;13.606;2023-02-08T02:17:00;102676.34;;;-9.06;60.81
68656;BME280;55638;51.122;13.606;2023-02-08T02:18:32;102675.50;;;-9.05;60.75
68656;BME280;55638;51.122;13.606;2023-02-08T02:20:30;102675.41;;;-9.08;60.86
68656;BME280;55638;51.122;13.606;2023-02-08T02:24:32;102666.59;;;-9.10;60.71
68656;BME280;55638;51.122;13.606;2023-02-08T02:28:44;102681.28;;;-9.13;60.61
68656;BME280;55638;51.122;13.606;2023-02-08T02:32:38;102672.31;;;-9.20;60.75
68656;BME280;55638;51.122;13.606;2023-02-08T02:34:30;102679.28;;;-9.20;60.52
68656;BME280;55638;51.122;13.606;2023-02-08T02:36:15;102674.88;;;-9.21;60.59
68656;BME280;55638;51.122;13.606;2023-02-08T02:37:54;102683.63;;;-9.21;60.58
68656;BME280;55638;51.122;13.606;2023-02-08T02:39:40;102677.50;;;-9.21;60.68
68656;BME280;55638;51.122;13.606;2023-02-08T02:41:39;102683.53;;;-9.23;60.80
68656;BME280;55638;51.122;13.606;2023-02-08T02:43:39;102684.38;;;-9.24;60.69
68656;BME280;55638;51.122;13.606;2023-02-08T02:45:25;102677.38;;;-9.25;60.82
68656;BME280;55638;51.122;13.606;2023-02-08T02:47:25;102679.91;;;-9.26;60.81
68656;BME280;55638;51.122;13.606;2023-02-08T02:49:05;102673.88;;;-9.25;60.74
68656;BME280;55638;51.122;13.606;2023-02-08T02:50:43;102678.28;;;-9.24;60.83
68656;BME280;55638;51.122;13.606;2023-02-08T02:52:24;102670.38;;;-9.26;61.02
68656;BME280;55638;51.122;13.606;2023-02-08T02:55:53;102674.78;;;-9.25;60.76
68656;BME280;55638;51.122;13.606;2023-02-08T02:57:29;102674.81;;;-9.23;60.65
68656;BME280;55638;51.122;13.606;2023-02-08T02:59:08;102669.53;;;-9.25;60.77
68656;BME280;55638;51.122;13.606;2023-02-08T03:00:41;102670.44;;;-9.24;60.75
68656;BME280;55638;51.122;13.606;2023-02-08T03:02:13;102673.09;;;-9.23;60.96
68656;BME280;55638;51.122;13.606;2023-02-08T03:03:45;102671.31;;;-9.24;61.04
68656;BME280;55638;51.122;13.606;2023-02-08T03:05:17;102667.06;;;-9.21;60.88
68656;BME280;55638;51.122;13.606;2023-02-08T03:07:23;102676.53;;;-9.24;61.18
68656;BME280;55638;51.122;13.606;2023-02-08T03:09:07;102677.53;;;-9.20;60.97
68656;BME280;55638;51.122;13.606;2023-02-08T03:14:37;102674.03;;;-9.20;61.27
68656;BME280;55638;51.122;13.606;2023-02-08T03:16:25;102675.00;;;-9.18;61.22
68656;BME280;55638;51.122;13.606;2023-02-08T03:25:10;102689.00;;;-9.16;61.26
68656;BME280;55638;51.122;13.606;2023-02-08T03:27:01;102681.16;;;-9.16;61.28
68656;BME280;55638;51.122;13.606;2023-02-08T03:30:32;102692.56;;;-9.14;61.12
68656;BME280;55638;51.122;13.606;2023-02-08T03:32:14;102688.22;;;-9.14;61.22
68656;BME280;55638;51.122;13.606;2023-02-08T03:33:49;102686.47;;;-9.15;61.32
68656;BME280;55638;51.122;13.606;2023-02-08T03:37:04;102683.88;;;-9.13;60.80
68656;BME280;55638;51.122;13.606;2023-02-08T03:38:41;102690.91;;;-9.12;60.73
68656;BME280;55638;51.122;13.606;2023-02-08T03:40:26;102690.84;;;-9.14;60.91
68656;BME280;55638;51.122;13.606;2023-02-08T03:42:01;102692.63;;;-9.13;60.73
68656;BME280;55638;51.122;13.606;2023-02-08T03:43:42;102696.06;;;-9.14;60.75
68656;BME280;55638;51.122;13.606;2023-02-08T03:45:19;102696.97;;;-9.13;60.54
68656;BME280;55638;51.122;13.606;2023-02-08T03:47:03;102702.06;;;-9.16;60.80
68656;BME280;55638;51.122;13.606;2023-02-08T03:48:41;102698.69;;;-9.14;60.69
68656;BME280;55638;51.122;13.606;2023-02-08T03:50:16;102696.03;;;-9.15;60.56
68656;BME280;55638;51.122;13.606;2023-02-08T03:51:51;102703.78;;;-9.17;60.48
68656;BME280;55638;51.122;13.606;2023-02-08T03:53:25;102701.13;;;-9.18;60.44
68656;BME280;55638;51.122;13.606;2023-02-08T03:55:05;102701.06;;;-9.20;60.58
68656;BME280;55638;51.122;13.606;2023-02-08T03:56:50;102714.97;;;-9.21;60.51
68656;BME280;55638;51.122;13.606;2023-02-08T03:58:27;102710.63;;;-9.20;60.52
68656;BME280;55638;51.122;13.606;2023-02-08T04:00:09;102707.06;;;-9.23;60.56
68656;BME280;55638;51.122;13.606;2023-02-08T04:01:49;102713.13;;;-9.24;60.52
68656;BME280;55638;51.122;13.606;2023-02-08T04:03:24;102716.56;;;-9.25;60.37
68656;BME280;55638;51.122;13.606;2023-02-08T04:04:58;102715.69;;;-9.25;60.32
68656;BME280;55638;51.122;13.606;2023-02-08T04:06:31;102713.00;;;-9.27;60.40
68656;BME280;55638;51.122;13.606;2023-02-08T04:08:03;102721.72;;;-9.26;60.58
68656;BME280;55638;51.122;13.606;2023-02-08T04:09:35;102719.00;;;-9.29;60.26
68656;BME280;55638;51.122;13.606;2023-02-08T04:11:09;102707.63;;;-9.31;60.39
68656;BME280;55638;51.122;13.606;2023-02-08T04:12:41;102720.72;;;-9.30;60.46
68656;BME280;55638;51.122;13.606;2023-02-08T04:14:13;102711.94;;;-9.32;60.37
68656;BME280;55638;51.122;13.606;2023-02-08T04:15:45;102709.25;;;-9.33;60.42
68656;BME280;55638;51.122;13.606;2023-02-08T04:17:17;102715.38;;;-9.33;60.60
68656;BME280;55638;51.122;13.606;2023-02-08T04:18:49;102711.81;;;-9.35;60.54
68656;BME280;55638;51.122;13.606;2023-02-08T04:20:21;102711.75;;;-9.36;60.46
68656;BME280;55638;51.122;13.606;2023-02-08T04:21:52;102703.88;;;-9.38;60.42
68656;BME280;55638;51.122;13.606;2023-02-08T04:23:24;102711.72;;;-9.38;60.40
68656;BME280;55638;51.122;13.606;2023-02-08T04:24:56;102710.75;;;-9.40;60.31
68656;BME280;55638;51.122;13.606;2023-02-08T04:26:28;102711.59;;;-9.41;60.43
68656;BME280;55638;51.122;13.606;2023-02-08T04:27:59;102711.59;;;-9.41;60.54
68656;BME280;55638;51.122;13.606;2023-02-08T04:29:31;102712.47;;;-9.40;60.34
68656;BME280;55638;51.122;13.606;2023-02-08T04:31:03;102714.19;;;-9.41;60.46
68656;BME280;55638;51.122;13.606;2023-02-08T04:32:35;102714.06;;;-9.44;60.28
68656;BME280;55638;51.122;13.606;2023-02-08T04:34:07;102710.56;;;-9.44;60.40
68656;BME280;55638;51.122;13.606;2023-02-08T04:35:42;102708.78;;;-9.46;60.47
68656;BME280;55638;51.122;13.606;2023-02-08T04:37:14;102702.66;;;-9.46;60.35
68656;BME280;55638;51.122;13.606;2023-02-08T04:38:46;102707.00;;;-9.47;60.41
68656;BME280;55638;51.122;13.606;2023-02-08T04:40:18;102700.00;;;-9.48;60.47
68656;BME280;55638;51.122;13.606;2023-02-08T04:41:49;102690.38;;;-9.49;60.57
68656;BME280;55638;51.122;13.606;2023-02-08T04:43:21;102698.22;;;-9.49;60.55
68656;BME280;55638;51.122;13.606;2023-02-08T04:44:53;102695.59;;;-9.49;60.52
68656;BME280;55638;51.122;13.606;2023-02-08T04:46:24;102693.00;;;-9.49;60.65
68656;BME280;55638;51.122;13.606;2023-02-08T04:47:57;102688.59;;;-9.50;60.51
68656;BME280;55638;51.122;13.606;2023-02-08T04:49:29;102689.44;;;-9.51;60.74
68656;BME280;55638;51.122;13.606;2023-02-08T04:51:01;102688.59;;;-9.50;60.54
68656;BME280;55638;51.122;13.606;2023-02-08T04:52:33;102684.22;;;-9.51;60.66
68656;BME280;55638;51.122;13.606;2023-02-08T04:54:04;102690.31;;;-9.50;60.59
68656;BME280;55638;51.122;13.606;2023-02-08T04:55:39;102691.16;;;-9.51;60.46
68656;BME280;55638;51.122;13.606;2023-02-08T04:57:12;102696.41;;;-9.51;60.48
68656;BME280;55638;51.122;13.606;2023-02-08T04:58:44;102694.59;;;-9.52;60.29
68656;BME280;55638;51.122;13.606;2023-02-08T05:00:16;102684.97;;;-9.53;60.46
68656;BME280;55638;51.122;13.606;2023-02-08T05:01:49;102690.22;;;-9.53;60.36
68656;BME280;55638;51.122;13.606;2023-02-08T05:03:20;102692.81;;;-9.53;60.23
68656;BME280;55638;51.122;13.606;2023-02-08T05:04:52;102689.31;;;-9.54;60.61
68656;BME280;55638;51.122;13.606;2023-02-08T05:06:24;102687.56;;;-9.55;60.56
68656;BME280;55638;51.122;13.606;2023-02-08T05:07:56;102683.22;;;-9.54;60.72
68656;BME280;55638;51.122;13.606;2023-02-08T05:09:28;102691.03;;;-9.54;60.68
68656;BME280;55638;51.122;13.606;2023-02-08T05:10:59;102686.63;;;-9.55;60.58
68656;BME280;55638;51.122;13.606;2023-02-08T05:12:31;102691.09;;;-9.53;60.68
68656;BME280;55638;51.122;13.606;2023-02-08T05:14:03;102687.56;;;-9.55;60.68
68656;BME280;55638;51.122;13.606;2023-02-08T05:15:35;102690.22;;;-9.53;60.65
68656;BME280;55638;51.122;13.606;2023-02-08T05:17:07;102688.44;;;-9.54;60.47
68656;BME280;55638;51.122;13.606;2023-02-08T05:18:39;102682.31;;;-9.55;60.67
68656;BME280;55638;51.122;13.606;2023-02-08T05:20:11;102684.94;;;-9.55;60.52
68656;BME280;55638;51.122;13.606;2023-02-08T05:21:43;102686.63;;;-9.55;60.64
68656;BME280;55638;51.122;13.606;2023-02-08T05:23:15;102687.56;;;-9.55;60.75
68656;BME280;55638;51.122;13.606;2023-02-08T05:24:47;102683.13;;;-9.56;60.75
68656;BME280;55638;51.122;13.606;2023-02-08T05:26:19;102692.78;;;-9.55;60.83
68656;BME280;55638;51.122;13.606;2023-02-08T05:27:51;102693.66;;;-9.54;61.00
68656;BME280;55638;51.122;13.606;2023-02-08T05:29:23;102689.31;;;-9.54;61.17
68656;BME280;55638;51.122;13.606;2023-02-08T05:30:55;102691.16;;;-9.51;61.09
68656;BME280;55638;51.122;13.606;2023-02-08T05:32:27;102685.06;;;-9.52;61.20
68656;BME280;55638;51.122;13.606;2023-02-08T05:33:58;102682.50;;;-9.50;61.53
68656;BME280;55638;51.122;13.606;2023-02-08T05:35:30;102688.69;;;-9.48;61.69
68656;BME280;55638;51.122;13.606;2023-02-08T05:37:02;102683.56;;;-9.45;61.79
68656;BME280;55638;51.122;13.606;2023-02-08T05:38:34;102682.78;;;-9.42;61.85
68656;BME280;55638;51.122;13.606;2023-02-08T05:40:06;102683.78;;;-9.39;61.95
68656;BME280;55638;51.122;13.606;2023-02-08T05:41:38;102683.91;;;-9.36;62.07
68656;BME280;55638;51.122;13.606;2023-02-08T05:43:10;102690.09;;;-9.34;62.07
68656;BME280;55638;51.122;13.606;2023-02-08T05:44:41;102687.59;;;-9.31;62.38
68656;BME280;55638;51.122;13.606;2023-02-08T05:46:13;102684.25;;;-9.27;62.29
68656;BME280;55638;51.122;13.606;2023-02-08T05:47:45;102685.25;;;-9.23;62.60
68656;BME280;55638;51.122;13.606;2023-02-08T05:49:19;102688.00;;;-9.20;63.09
68656;BME280;55638;51.122;13.606;2023-02-08T05:50:51;102692.44;;;-9.17;63.62
68656;BME280;55638;51.122;13.606;2023-02-08T05:52:23;102684.84;;;-9.11;63.68
68656;BME280;55638;51.122;13.606;2023-02-08T05:53:55;102685.94;;;-9.06;63.74
68656;BME280;55638;51.122;13.606;2023-02-08T05:55:26;102679.97;;;-9.02;64.07
68656;BME280;55638;51.122;13.606;2023-02-08T05:56:59;102691.59;;;-8.94;63.78
68656;BME280;55638;51.122;13.606;2023-02-08T05:58:31;102680.50;;;-8.87;63.81
68656;BME280;55638;51.122;13.606;2023-02-08T06:00:04;102688.66;;;-8.79;63.63
68656;BME280;55638;51.122;13.606;2023-02-08T06:01:46;102687.16;;;-8.72;63.52
68656;BME280;55638;51.122;13.606;2023-02-08T06:03:18;102685.56;;;-8.67;63.65
68656;BME280;55638;51.122;13.606;2023-02-08T06:04:50;102683.19;;;-8.61;63.30
68656;BME280;55638;51.122;13.606;2023-02-08T06:06:22;102686.78;;;-8.58;63.54
68656;BME280;55638;51.122;13.606;2023-02-08T06:07:54;102681.78;;;-8.52;63.45
68656;BME280;55638;51.122;13.606;2023-02-08T06:09:25;102690.72;;;-8.45;63.55
68656;BME280;55638;51.122;13.606;2023-02-08T06:10:57;102684.72;;;-8.42;63.38
68656;BME280;55638;51.122;13.606;2023-02-08T06:12:29;102680.59;;;-8.36;63.23
68656;BME280;55638;51.122;13.606;2023-02-08T06:14:01;102688.53;;;-8.33;63.31
68656;BME280;55638;51.122;13.606;2023-02-08T06:15:33;102685.25;;;-8.27;63.10
68656;BME280;55638;51.122;13.606;2023-02-08T06:17:05;102687.19;;;-8.21;62.88
68656;BME280;55638;51.122;13.606;2023-02-08T06:18:37;102689.00;;;-8.19;62.70
68656;BME280;55638;51.122;13.606;2023-02-08T06:20:09;102690.91;;;-8.15;62.55
68656;BME280;55638;51.122;13.606;2023-02-08T06:21:41;102689.22;;;-8.13;62.48
68656;BME280;55638;51.122;13.606;2023-02-08T06:23:13;102697.13;;;-8.11;62.54
68656;BME280;55638;51.122;13.606;2023-02-08T06:24:44;102693.78;;;-8.07;62.52
68656;BME280;55638;51.122;13.606;2023-02-08T06:26:16;102692.03;;;-8.07;62.51
68656;BME280;55638;51.122;13.606;2023-02-08T06:27:48;102700.06;;;-8.02;62.27
68656;BME280;55638;51.122;13.606;2023-02-08T06:29:20;102706.22;;;-8.00;62.65
68656;BME280;55638;51.122;13.606;2023-02-08T06:30:51;102707.16;;;-7.98;62.83
68656;BME280;55638;51.122;13.606;2023-02-08T06:32:23;102708.09;;;-7.96;62.62
68656;BME280;55638;51.122;13.606;2023-02-08T06:33:56;102710.81;;;-7.93;62.76
68656;BME280;55638;51.122;13.606;2023-02-08T06:35:28;102705.69;;;-7.90;62.63
68656;BME280;55638;51.122;13.606;2023-02-08T06:37:00;102709.28;;;-7.86;62.55
68656;BME280;55638;51.122;13.606;2023-02-08T06:38:32;102713.59;;;-7.88;62.93
68656;BME280;55638;51.122;13.606;2023-02-08T06:40:05;102710.19;;;-7.86;62.94
68656;BME280;55638;51.122;13.606;2023-02-08T06:41:37;102718.22;;;-7.79;62.66
68656;BME280;55638;51.122;13.606;2023-02-08T06:43:09;102720.06;;;-7.77;62.69
68656;BME280;55638;51.122;13.606;2023-02-08T06:44:40;102714.03;;;-7.74;62.65
68656;BME280;55638;51.122;13.606;2023-02-08T06:46:25;102719.38;;;-7.71;62.51
68656;BME280;55638;51.122;13.606;2023-02-08T06:47:57;102722.09;;;-7.68;62.45
68656;BME280;55638;51.122;13.606;2023-02-08T06:49:28;102720.47;;;-7.65;62.29
68656;BME280;55638;51.122;13.606;2023-02-08T06:51:00;102718.81;;;-7.63;62.30
68656;BME280;55638;51.122;13.606;2023-02-08T06:52:33;102725.81;;;-7.62;62.22
68656;BME280;55638;51.122;13.606;2023-02-08T06:54:05;102722.41;;;-7.59;62.18
68656;BME280;55638;51.122;13.606;2023-02-08T06:55:38;102723.28;;;-7.59;61.97
68656;BME280;55638;51.122;13.606;2023-02-08T06:57:10;102725.06;;;-7.57;61.98
68656;BME280;55638;51.122;13.606;2023-02-08T06:58:44;102726.78;;;-7.58;62.17
68656;BME280;55638;51.122;13.606;2023-02-08T07:00:16;102726.91;;;-7.55;62.01
68656;BME280;55638;51.122;13.606;2023-02-08T07:01:48;102731.34;;;-7.52;62.25
68656;BME280;55638;51.122;13.606;2023-02-08T07:03:20;102732.13;;;-7.55;62.32
68656;BME280;55638;51.122;13.606;2023-02-08T07:04:53;102734.84;;;-7.52;62.20
68656;BME280;55638;51.122;13.606;2023-02-08T07:06:24;102725.31;;;-7.50;62.26
68656;BME280;55638;51.122;13.606;2023-02-08T07:07:56;102734.09;;;-7.48;62.28
68656;BME280;55638;51.122;13.606;2023-02-08T07:09:28;102724.56;;;-7.46;62.15
68656;BME280;55638;51.122;13.606;2023-02-08T07:11:05;102727.28;;;-7.43;62.11
68656;BME280;55638;51.122;13.606;2023-02-08T07:12:37;102724.88;;;-7.37;61.88
68656;BME280;55638;51.122;13.606;2023-02-08T07:14:11;102734.47;;;-7.37;62.14
68656;BME280;55638;51.122;13.606;2023-02-08T07:15:43;102722.34;;;-7.33;61.91
68656;BME280;55638;51.122;13.606;2023-02-08T07:17:15;102725.00;;;-7.32;62.09
68656;BME280;55638;51.122;13.606;2023-02-08T07:18:47;102728.56;;;-7.30;61.99
68656;BME280;55638;51.122;13.606;2023-02-08T07:20:19;102725.09;;;-7.29;62.19
68656;BME280;55638;51.122;13.606;2023-02-08T07:21:51;102732.19;;;-7.25;62.13
68656;BME280;55638;51.122;13.606;2023-02-08T07:23:22;102731.31;;;-7.25;62.02
68656;BME280;55638;51.122;13.606;2023-02-08T07:24:54;102721.69;;;-7.26;62.47
68656;BME280;55638;51.122;13.606;2023-02-08T07:26:26;102723.59;;;-7.21;62.35
68656;BME280;55638;51.122;13.606;2023-02-08T07:27:58;102725.38;;;-7.20;62.26
68656;BME280;55638;51.122;13.606;2023-02-08T07:29:30;102726.34;;;-7.16;62.36
68656;BME280;55638;51.122;13.606;2023-02-08T07:31:14;102734.31;;;-7.13;62.55
68656;BME280;55638;51.122;13.606;2023-02-08T07:32:46;102722.25;;;-7.08;62.32
68656;BME280;55638;51.122;13.606;2023-02-08T07:34:17;102723.22;;;-7.04;62.32
68656;BME280;55638;51.122;13.606;2023-02-08T07:35:52;102730.34;;;-7.00;62.39
68656;BME280;55638;51.122;13.606;2023-02-08T07:37:24;102726.81;;;-7.01;62.55
68656;BME280;55638;51.122;13.606;2023-02-08T07:38:56;102732.19;;;-6.96;62.52
68656;BME280;55638;51.122;13.606;2023-02-08T07:40:28;102727.91;;;-6.93;62.53
68656;BME280;55638;51.122;13.606;2023-02-08T07:42:00;102733.22;;;-6.91;62.64
68656;BME280;55638;51.122;13.606;2023-02-08T07:43:38;102731.69;;;-6.84;62.40
68656;BME280;55638;51.122;13.606;2023-02-08T07:45:10;102732.66;;;-6.81;62.41
68656;BME280;55638;51.122;13.606;2023-02-08T07:46:42;102722.19;;;-6.79;62.48
68656;BME280;55638;51.122;13.606;2023-02-08T07:48:14;102729.25;;;-6.78;62.45
68656;BME280;55638;51.122;13.606;2023-02-08T07:49:45;102721.53;;;-6.72;62.40
68656;BME280;55638;51.122;13.606;2023-02-08T07:51:18;102731.28;;;-6.68;62.46
68656;BME280;55638;51.122;13.606;2023-02-08T07:52:49;102719.91;;;-6.67;62.29
68656;BME280;55638;51.122;13.606;2023-02-08T07:54:21;102723.50;;;-6.63;62.56
68656;BME280;55638;51.122;13.606;2023-02-08T07:55:53;102720.94;;;-6.62;62.54
68656;BME280;55638;51.122;13.606;2023-02-08T07:57:25;102722.81;;;-6.58;62.34
68656;BME280;55638;51.122;13.606;2023-02-08T07:58:57;102725.53;;;-6.55;62.53
68656;BME280;55638;51.122;13.606;2023-02-08T08:00:28;102728.31;;;-6.49;62.09
68656;BME280;55638;51.122;13.606;2023-02-08T08:02:00;102729.28;;;-6.45;62.43
68656;BME280;55638;51.122;13.606;2023-02-08T08:03:32;102729.38;;;-6.42;62.46
68656;BME280;55638;51.122;13.606;2023-02-08T08:05:05;102732.97;;;-6.38;62.54
68656;BME280;55638;51.122;13.606;2023-02-08T08:06:37;102723.44;;;-6.35;62.49
68656;BME280;55638;51.122;13.606;2023-02-08T08:08:10;102726.16;;;-6.30;62.29
68656;BME280;55638;51.122;13.606;2023-02-08T08:09:41;102736.75;;;-6.27;62.42
68656;BME280;55638;51.122;13.606;2023-02-08T08:11:14;102733.31;;;-6.26;62.46
68656;BME280;55638;51.122;13.606;2023-02-08T08:12:46;102729.94;;;-6.21;62.44
68656;BME280;55638;51.122;13.606;2023-02-08T08:14:18;102730.00;;;-6.19;62.48
68656;BME280;55638;51.122;13.606;2023-02-08T08:15:50;102730.19;;;-6.11;62.45
68656;BME280;55638;51.122;13.606;2023-02-08T08:17:22;102734.63;;;-6.09;62.59
68656;BME280;55638;51.122;13.606;2023-02-08T08:18:53;102732.09;;;-6.06;62.58
68656;BME280;55638;51.122;13.606;2023-02-08T08:20:25;102730.41;;;-6.04;62.52
68656;BME280;55638;51.122;13.606;2023-02-08T08:21:57;102726.22;;;-5.96;62.64
68656;BME280;55638;51.122;13.606;2023-02-08T08:23:29;102731.53;;;-5.92;62.65
68656;BME280;55638;51.122;13.606;2023-02-08T08:25:03;102725.50;;;-5.88;62.46
68656;BME280;55638;51.122;13.606;2023-02-08T08:26:35;102736.19;;;-5.82;62.54
68656;BME280;55638;51.122;13.606;2023-02-08T08:28:07;102737.19;;;-5.77;62.60
68656;BME280;55638;51.122;13.606;2023-02-08T08:29:39;102733.78;;;-5.73;62.41
68656;BME280;55638;51.122;13.606;2023-02-08T08:31:12;102739.03;;;-5.73;62.62